Time;durP1;ratioP1;P1;durP2;ratioP2;P2;SDS_P1;SDS_P2;PMS_P1;PMS_P2;Temp;Humidity;BMP_temperature;BMP_pressure;BME280_temperature;BME280_humidity;BME280_pressure;Samples;Min_cycle;Max_cycle;Signal;HPM_P1;HPM_P2
2023/03/15 00:00:43;;;;;;;10.83;4.83;;;2.90;99.90;;;;;;5073932;28;20301;-50
2023/03/15 00:03:09;;;;;;;11.17;4.10;;;2.90;99.90;;;;;;5074237;28;20206;-50
2023/03/15 00:05:34;;;;;;;13.07;4.27;;;2.90;99.90;;;;;;5074205;28;20600;-50
2023/03/15 00:08:00;;;;;;;6.93;3.77;;;3.00;99.90;;;;;;5074126;28;20221;-51
2023/03/15 00:10:27;;;;;;;15.40;4.73;;;3.00;99.90;;;;;;5073774;28;20210;-50
2023/03/15 00:12:53;;;;;;;6.97;2.53;;;3.00;99.90;;;;;;5073227;28;20546;-49
2023/03/15 00:15:18;;;;;;;10.37;4.70;;;3.10;99.90;;;;;;5073686;28;20180;-50
2023/03/15 00:17:44;;;;;;;13.30;4.67;;;3.10;99.90;;;;;;5073745;28;20172;-50
2023/03/15 00:20:13;;;;;;;11.43;4.80;;;3.10;99.90;;;;;;5073645;28;20196;-49
2023/03/15 00:22:39;;;;;;;7.13;2.83;;;3.10;99.90;;;;;;5073935;28;20589;-49
2023/03/15 00:25:05;;;;;;;11.27;4.03;;;3.10;99.90;;;;;;5073642;28;20225;-49
2023/03/15 00:27:31;;;;;;;10.63;4.43;;;3.20;99.90;;;;;;5073722;28;20172;-48
2023/03/15 00:29:56;;;;;;;16.87;5.20;;;3.20;99.90;;;;;;5073588;28;20172;-48
2023/03/15 00:32:22;;;;;;;8.90;3.90;;;3.20;99.90;;;;;;5073819;28;20176;-46
2023/03/15 00:34:48;;;;;;;10.90;5.10;;;3.10;99.90;;;;;;5074104;28;20662;-47
2023/03/15 00:37:18;;;;;;;8.33;3.70;;;3.10;99.90;;;;;;5073714;28;20240;-47
2023/03/15 00:39:45;;;;;;;14.50;5.17;;;3.10;99.90;;;;;;5074236;28;20682;-46
2023/03/15 00:42:14;;;;;;;13.60;5.13;;;3.10;99.90;;;;;;5073635;28;20274;-47
2023/03/15 00:44:43;;;;;;;13.53;5.27;;;3.10;99.90;;;;;;5073465;28;20237;-47
2023/03/15 00:47:10;;;;;;;8.60;4.90;;;3.10;99.90;;;;;;5073690;28;20570;-47
2023/03/15 00:49:36;;;;;;;10.63;5.20;;;3.20;99.90;;;;;;5073383;28;20564;-47
2023/03/15 00:52:02;;;;;;;12.63;5.57;;;3.10;99.90;;;;;;5073263;28;20282;-46
2023/03/15 00:54:27;;;;;;;12.53;5.03;;;3.10;99.90;;;;;;5073642;28;20333;-46
2023/03/15 00:56:53;;;;;;;11.93;4.93;;;3.10;99.90;;;;;;5073216;28;20257;-47
2023/03/15 00:59:18;;;;;;;10.43;4.33;;;3.20;99.90;;;;;;5073239;28;20210;-46
2023/03/15 01:01:44;;;;;;;10.70;5.17;;;3.20;99.90;;;;;;5073209;28;20274;-47
2023/03/15 01:04:10;;;;;;;5.00;2.73;;;3.20;99.90;;;;;;5073536;28;20171;-47
2023/03/15 01:06:36;;;;;;;7.60;3.33;;;3.20;99.90;;;;;;5073244;28;20690;-44
2023/03/15 01:09:04;;;;;;;9.67;3.33;;;3.10;99.90;;;;;;5073302;28;20175;-45
2023/03/15 01:11:30;;;;;;;6.73;3.77;;;3.10;99.90;;;;;;5073349;28;20214;-45
2023/03/15 01:13:58;;;;;;;7.20;3.07;;;3.10;99.90;;;;;;5071873;28;20176;-47
2023/03/15 01:16:24;;;;;;;11.63;3.77;;;3.00;99.90;;;;;;5073285;28;20245;-47
2023/03/15 01:18:50;;;;;;;6.97;3.30;;;2.90;99.90;;;;;;5073110;28;20164;-47
2023/03/15 01:21:16;;;;;;;9.70;3.70;;;2.90;99.90;;;;;;5072996;28;20209;-46
2023/03/15 01:23:42;;;;;;;4.90;2.27;;;2.80;99.90;;;;;;5073359;28;20225;-46
2023/03/15 01:26:12;;;;;;;9.43;3.60;;;2.80;99.90;;;;;;5077067;28;20179;-46
2023/03/15 01:28:38;;;;;;;4.20;2.60;;;2.80;99.90;;;;;;5077727;28;20258;-47
2023/03/15 01:31:04;;;;;;;7.77;3.73;;;2.70;99.90;;;;;;5076974;28;20207;-45
2023/03/15 01:33:30;;;;;;;7.67;3.53;;;2.70;99.90;;;;;;5077022;28;20674;-45
2023/03/15 01:36:04;;;;;;;6.77;2.97;;;2.60;99.90;;;;;;5077086;28;20195;-46
2023/03/15 01:38:29;;;;;;;5.83;2.87;;;2.60;99.90;;;;;;5077217;28;20172;-44
2023/03/15 01:40:55;;;;;;;7.57;3.47;;;2.50;99.90;;;;;;5076993;28;20190;-45
2023/03/15 01:43:23;;;;;;;6.17;2.87;;;2.40;99.90;;;;;;5075433;28;20175;-46
2023/03/15 01:45:58;;;;;;;5.63;3.13;;;2.30;99.90;;;;;;5075407;28;20183;-46
2023/03/15 01:48:38;;;;;;;7.03;3.80;;;2.20;99.90;;;;;;5076594;28;20187;-45
2023/03/15 01:51:25;;;;;;;8.47;3.40;;;2.10;99.90;;;;;;5076544;28;20278;-45
2023/03/15 01:54:25;;;;;;;7.17;3.93;;;2.00;99.90;;;;;;5076777;28;20172;-46
2023/03/15 01:56:56;;;;;;;4.93;3.53;;;1.90;99.90;;;;;;5074266;28;20254;-44
2023/03/15 01:59:44;;;;;;;7.07;3.87;;;1.80;99.90;;;;;;5076487;28;20194;-46
2023/03/15 02:02:14;;;;;;;5.17;3.57;;;1.80;99.90;;;;;;5076725;28;20200;-46
2023/03/15 02:04:48;;;;;;;6.23;3.73;;;1.70;99.90;;;;;;5076524;28;20183;-43
2023/03/15 02:07:16;;;;;;;7.30;3.77;;;1.70;99.90;;;;;;5077103;28;20182;-46
2023/03/15 02:10:08;;;;;;;7.33;4.17;;;1.70;99.90;;;;;;5076522;28;20172;-45
2023/03/15 02:12:39;;;;;;;7.83;3.93;;;1.70;99.90;;;;;;5076222;28;20207;-46
2023/03/15 02:15:06;;;;;;;7.03;3.97;;;1.60;99.90;;;;;;5076096;28;20643;-44
2023/03/15 02:17:44;;;;;;;6.77;3.33;;;1.60;99.90;;;;;;5076423;28;20195;-47
2023/03/15 02:20:13;;;;;;;6.73;4.20;;;1.60;99.90;;;;;;5075952;28;20203;-46
2023/03/15 02:22:55;;;;;;;11.07;4.43;;;1.60;99.90;;;;;;5076359;28;20187;-45
2023/03/15 02:26:05;;;;;;;7.17;4.23;;;1.60;99.90;;;;;;5076261;28;20160;-46
2023/03/15 02:28:31;;;;;;;6.10;4.33;;;1.60;99.90;;;;;;5075829;28;20180;-46
2023/03/15 02:30:57;;;;;;;7.20;4.60;;;1.60;99.90;;;;;;5075847;28;20602;-45
2023/03/15 02:33:32;;;;;;;7.37;4.57;;;1.60;99.90;;;;;;5075744;28;20560;-45
2023/03/15 02:36:24;;;;;;;6.67;4.90;;;1.50;99.90;;;;;;5075006;28;20207;-45
2023/03/15 02:38:50;;;;;;;7.07;5.10;;;1.50;99.90;;;;;;5074989;28;20218;-45
2023/03/15 02:41:25;;;;;;;5.63;4.13;;;1.50;99.90;;;;;;5075608;28;20663;-45
2023/03/15 02:43:54;;;;;;;5.00;3.90;;;1.50;99.90;;;;;;5075906;28;20205;-45
2023/03/15 02:46:20;;;;;;;6.27;4.30;;;1.50;99.90;;;;;;5075650;28;20218;-43
2023/03/15 02:48:48;;;;;;;7.17;4.50;;;1.50;99.90;;;;;;5075580;28;20184;-44
2023/03/15 02:51:19;;;;;;;5.00;3.70;;;1.50;99.90;;;;;;5075624;28;20219;-44
2023/03/15 02:53:45;;;;;;;4.00;3.17;;;1.50;99.90;;;;;;5075438;28;20175;-45
2023/03/15 02:56:10;;;;;;;4.17;3.17;;;1.50;99.90;;;;;;5075526;28;20198;-44
2023/03/15 02:58:36;;;;;;;3.80;3.27;;;1.50;99.90;;;;;;5075943;28;20172;-43
2023/03/15 03:01:01;;;;;;;4.17;3.20;;;1.50;99.90;;;;;;5073993;28;20230;-44
2023/03/15 03:03:27;;;;;;;4.10;2.67;;;1.60;99.90;;;;;;5075191;28;20176;-45
2023/03/15 03:05:53;;;;;;;4.10;3.00;;;1.60;99.90;;;;;;5075222;28;20189;-45
2023/03/15 03:08:18;;;;;;;4.60;3.00;;;1.60;99.90;;;;;;5075143;28;20234;-43
2023/03/15 03:10:44;;;;;;;4.23;2.63;;;1.60;99.90;;;;;;5075220;28;20226;-44
2023/03/15 03:13:09;;;;;;;3.10;2.67;;;1.60;99.90;;;;;;5075049;28;20175;-45
2023/03/15 03:15:35;;;;;;;4.47;3.13;;;1.60;99.90;;;;;;5074928;28;20195;-44
2023/03/15 03:18:00;;;;;;;3.83;2.80;;;1.60;99.90;;;;;;5074990;28;20171;-44
2023/03/15 03:20:26;;;;;;;2.60;2.07;;;1.60;99.90;;;;;;5075069;28;20248;-45
2023/03/15 03:22:54;;;;;;;2.63;2.33;;;1.60;99.90;;;;;;5075071;28;20171;-43
2023/03/15 03:25:20;;;;;;;2.87;2.27;;;1.60;99.90;;;;;;5074774;28;20172;-44
2023/03/15 03:27:46;;;;;;;2.87;2.60;;;1.60;99.90;;;;;;5075069;28;20211;-44
2023/03/15 03:30:12;;;;;;;2.70;2.27;;;1.60;99.90;;;;;;5075058;28;20196;-44
2023/03/15 03:32:41;;;;;;;2.90;2.03;;;1.60;99.90;;;;;;5074989;28;20172;-44
2023/03/15 03:35:07;;;;;;;2.47;2.27;;;1.70;99.90;;;;;;5074865;28;20186;-45
2023/03/15 03:37:34;;;;;;;2.73;2.00;;;1.60;99.90;;;;;;5074387;28;20218;-46
2023/03/15 03:40:00;;;;;;;2.37;1.67;;;1.70;99.90;;;;;;5074698;28;20250;-44
2023/03/15 03:42:26;;;;;;;2.67;1.83;;;1.70;99.90;;;;;;5074679;28;20179;-46
2023/03/15 03:44:53;;;;;;;2.40;1.90;;;1.70;99.90;;;;;;5074773;28;20168;-45
2023/03/15 03:47:19;;;;;;;2.30;2.10;;;1.70;99.90;;;;;;5074547;28;20191;-44
2023/03/15 03:49:44;;;;;;;2.23;2.03;;;1.70;99.90;;;;;;5073022;28;20190;-43
2023/03/15 03:52:10;;;;;;;2.50;2.10;;;1.80;99.90;;;;;;5074412;28;20226;-44
2023/03/15 03:54:36;;;;;;;2.70;2.23;;;1.80;99.90;;;;;;5074532;28;20180;-45
2023/03/15 03:57:01;;;;;;;3.27;2.23;;;1.80;99.90;;;;;;5072866;28;20298;-45
2023/03/15 03:59:27;;;;;;;2.50;2.20;;;1.80;99.90;;;;;;5074224;28;20188;-44
2023/03/15 04:01:52;;;;;;;2.33;2.13;;;1.70;99.90;;;;;;5074249;28;20208;-43
2023/03/15 04:04:18;;;;;;;2.30;2.07;;;1.60;99.90;;;;;;5074056;28;20176;-44
2023/03/15 04:06:44;;;;;;;3.10;2.30;;;1.60;99.90;;;;;;5074030;28;20191;-43
2023/03/15 04:09:14;;;;;;;2.23;2.03;;;1.50;99.90;;;;;;5073853;28;20270;-43
2023/03/15 04:11:43;;;;;;;2.50;2.30;;;1.50;99.90;;;;;;5074140;28;20282;-43
2023/03/15 04:14:10;;;;;;;2.57;2.37;;;1.50;99.90;;;;;;5088055;22;20234;-45
2023/03/15 04:16:36;;;;;;;3.00;2.70;;;1.40;99.90;;;;;;5074048;28;20600;-48
2023/03/15 04:19:02;;;;;;;2.40;2.00;;;1.30;99.90;;;;;;5073880;28;20179;-47
2023/03/15 04:21:30;;;;;;;2.77;2.10;;;1.30;99.90;;;;;;5074074;28;20313;-45
2023/03/15 04:23:58;;;;;;;2.20;2.00;;;1.30;99.90;;;;;;5073927;28;20236;-47
2023/03/15 04:26:25;;;;;;;3.60;2.40;;;1.30;99.90;;;;;;5073977;28;20183;-45
2023/03/15 04:28:54;;;;;;;2.57;2.37;;;1.30;99.90;;;;;;5073919;28;20187;-45
2023/03/15 04:31:21;;;;;;;3.07;2.60;;;1.30;99.90;;;;;;5073548;28;20199;-45
2023/03/15 04:33:47;;;;;;;3.67;3.00;;;1.30;99.90;;;;;;5073807;28;20179;-46
2023/03/15 04:36:17;;;;;;;2.93;2.63;;;1.30;99.90;;;;;;5073486;28;20212;-47
2023/03/15 04:38:45;;;;;;;3.40;3.10;;;1.30;99.90;;;;;;5073859;28;20525;-45
2023/03/15 04:41:12;;;;;;;4.17;2.93;;;1.20;99.90;;;;;;5073624;28;20184;-47
2023/03/15 04:43:38;;;;;;;3.57;3.20;;;1.30;99.90;;;;;;5073558;28;20182;-48
2023/03/15 04:46:03;;;;;;;3.83;3.43;;;1.20;99.90;;;;;;5073453;28;20171;-46
2023/03/15 04:48:29;;;;;;;3.60;3.30;;;1.20;99.90;;;;;;5072150;28;20274;-46
2023/03/15 04:50:55;;;;;;;4.27;3.27;;;1.20;99.90;;;;;;5073670;28;20207;-47
2023/03/15 04:53:21;;;;;;;5.10;4.07;;;1.20;99.90;;;;;;5073387;28;20182;-48
2023/03/15 04:55:46;;;;;;;5.10;3.97;;;1.20;99.90;;;;;;5073644;28;20191;-47
2023/03/15 04:58:12;;;;;;;4.00;3.50;;;1.20;99.90;;;;;;5073269;28;20221;-45
2023/03/15 05:00:38;;;;;;;4.60;3.70;;;1.20;99.90;;;;;;5072814;28;20196;-46
2023/03/15 05:03:03;;;;;;;4.20;3.80;;;1.10;99.90;;;;;;5073254;28;20180;-48
2023/03/15 05:05:32;;;;;;;4.00;3.60;;;1.10;99.90;;;;;;5073292;28;20665;-46
2023/03/15 05:07:57;;;;;;;5.13;4.43;;;1.10;99.90;;;;;;5073428;28;20171;-47
2023/03/15 05:10:24;;;;;;;4.40;4.00;;;1.10;99.90;;;;;;5073368;28;20548;-48
2023/03/15 05:12:50;;;;;;;4.50;4.10;;;1.10;99.90;;;;;;5073205;28;20179;-47
2023/03/15 05:15:16;;;;;;;6.63;4.57;;;1.10;99.90;;;;;;5073341;28;20195;-45
2023/03/15 05:17:45;;;;;;;5.20;4.60;;;1.10;99.90;;;;;;5073312;28;20195;-48
2023/03/15 05:20:13;;;;;;;7.23;4.57;;;1.10;99.90;;;;;;5073103;28;20740;-46
2023/03/15 05:22:39;;;;;;;5.47;4.67;;;1.10;99.90;;;;;;5074030;28;20175;-46
2023/03/15 05:25:06;;;;;;;5.07;4.50;;;1.00;99.90;;;;;;5073413;28;20175;-48
2023/03/15 05:27:33;;;;;;;6.17;5.00;;;1.10;99.90;;;;;;5073000;28;20171;-47
2023/03/15 05:30:01;;;;;;;8.07;5.23;;;1.00;99.90;;;;;;5072976;28;20171;-47
2023/03/15 05:32:28;;;;;;;5.20;4.70;;;1.00;99.90;;;;;;5073281;28;20270;-46
2023/03/15 05:34:53;;;;;;;7.23;4.60;;;1.10;99.90;;;;;;5073358;28;20219;-47
2023/03/15 05:37:21;;;;;;;10.07;5.53;;;1.00;99.90;;;;;;5072859;28;20628;-48
2023/03/15 05:39:47;;;;;;;6.07;5.40;;;1.10;99.90;;;;;;5073234;28;20628;-49
2023/03/15 05:42:13;;;;;;;7.13;5.63;;;1.10;99.90;;;;;;5072809;28;20241;-48
2023/03/15 05:44:38;;;;;;;6.63;5.50;;;1.00;99.90;;;;;;5072810;28;20247;-48
2023/03/15 05:47:04;;;;;;;7.93;5.90;;;1.10;99.90;;;;;;5072838;28;20182;-48
2023/03/15 05:49:29;;;;;;;6.57;5.87;;;1.00;99.90;;;;;;5073449;28;20627;-47
2023/03/15 05:51:55;;;;;;;6.43;5.50;;;1.10;99.90;;;;;;5073018;28;20203;-48
2023/03/15 05:54:21;;;;;;;6.53;5.93;;;1.10;99.90;;;;;;5073049;28;20187;-47
2023/03/15 05:56:47;;;;;;;9.27;6.20;;;1.10;99.90;;;;;;5072233;28;20230;-48
2023/03/15 05:59:12;;;;;;;7.13;6.43;;;1.10;99.90;;;;;;5073316;28;20199;-49
2023/03/15 06:01:38;;;;;;;8.03;6.83;;;1.10;99.90;;;;;;5072762;28;20689;-50
2023/03/15 06:04:04;;;;;;;9.20;6.27;;;1.10;99.90;;;;;;5072877;28;20249;-48
2023/03/15 06:06:29;;;;;;;8.23;6.43;;;1.20;99.90;;;;;;5073485;28;20183;-47
2023/03/15 06:08:55;;;;;;;7.13;6.40;;;1.20;99.90;;;;;;5073415;28;20179;-48
2023/03/15 06:11:20;;;;;;;11.77;7.13;;;1.30;99.90;;;;;;5073920;28;20252;-47
2023/03/15 06:13:46;;;;;;;8.70;7.27;;;1.30;99.90;;;;;;5076703;28;20199;-50
2023/03/15 06:16:12;;;;;;;10.03;7.47;;;1.30;99.90;;;;;;5077128;28;20191;-49
2023/03/15 06:18:37;;;;;;;9.77;7.20;;;1.30;99.90;;;;;;5077389;28;20661;-48
2023/03/15 06:21:03;;;;;;;10.93;7.47;;;1.30;99.90;;;;;;5077206;28;20248;-48
2023/03/15 06:23:29;;;;;;;12.93;7.50;;;1.40;99.90;;;;;;5077532;28;20222;-48
2023/03/15 06:25:54;;;;;;;11.63;7.37;;;1.30;99.90;;;;;;5077952;28;20175;-49
2023/03/15 06:28:20;;;;;;;7.80;6.90;;;1.40;99.90;;;;;;5077118;28;20179;-49
2023/03/15 06:30:46;;;;;;;11.07;7.93;;;1.40;99.90;;;;;;5076291;28;20282;-49
2023/03/15 06:33:11;;;;;;;10.00;7.80;;;1.40;99.90;;;;;;5075979;28;20266;-49
2023/03/15 06:35:37;;;;;;;9.53;6.93;;;1.50;99.90;;;;;;5075823;28;20211;-48
2023/03/15 06:38:02;;;;;;;8.80;7.37;;;1.50;99.90;;;;;;5075892;28;20573;-48
2023/03/15 06:40:28;;;;;;;11.43;7.20;;;1.50;99.90;;;;;;5076081;28;20230;-49
2023/03/15 06:42:54;;;;;;;9.30;7.43;;;1.50;99.90;;;;;;5076132;28;20179;-48
2023/03/15 06:45:19;;;;;;;11.37;6.97;;;1.50;99.90;;;;;;5076036;28;20183;-49
2023/03/15 06:47:45;;;;;;;16.17;8.53;;;1.60;99.90;;;;;;5075956;28;20182;-48
2023/03/15 06:50:12;;;;;;;11.57;8.43;;;1.60;99.90;;;;;;5075699;28;20222;-48
2023/03/15 06:52:37;;;;;;;24.50;16.20;;;1.60;99.90;;;;;;5075988;28;20236;-49
2023/03/15 06:55:04;;;;;;;9.83;7.17;;;1.70;99.90;;;;;;5074328;28;20179;-48
2023/03/15 06:57:29;;;;;;;9.20;7.50;;;1.70;99.90;;;;;;5075422;28;20213;-49
2023/03/15 06:59:55;;;;;;;12.30;7.67;;;1.70;99.90;;;;;;5075533;28;20176;-49
2023/03/15 07:02:21;;;;;;;8.47;6.70;;;1.70;99.90;;;;;;5075686;28;20643;-48
2023/03/15 07:04:47;;;;;;;13.30;7.77;;;1.70;99.90;;;;;;5075749;28;20175;-48
2023/03/15 07:07:14;;;;;;;10.77;7.17;;;1.70;99.90;;;;;;5075800;28;20179;-49
2023/03/15 07:09:40;;;;;;;9.60;7.30;;;1.80;99.90;;;;;;5075738;28;20190;-48
2023/03/15 07:12:07;;;;;;;10.73;7.13;;;1.80;99.90;;;;;;5075444;28;20203;-48
2023/03/15 07:14:33;;;;;;;12.67;8.00;;;1.80;99.90;;;;;;5075155;28;20199;-49
2023/03/15 07:16:59;;;;;;;11.03;6.97;;;1.80;99.90;;;;;;5075046;28;20237;-49
2023/03/15 07:19:24;;;;;;;11.53;7.60;;;1.90;99.90;;;;;;5075003;28;20171;-50
2023/03/15 07:21:50;;;;;;;11.37;7.30;;;2.00;99.90;;;;;;5075067;28;20188;-48
2023/03/15 07:24:16;;;;;;;9.17;7.27;;;2.00;99.90;;;;;;5075104;28;20528;-49
2023/03/15 07:26:42;;;;;;;10.67;7.93;;;2.20;99.90;;;;;;5074972;28;20207;-49
2023/03/15 07:29:08;;;;;;;11.00;8.17;;;2.20;99.90;;;;;;5075802;28;20312;-50
2023/03/15 07:31:34;;;;;;;10.97;8.00;;;2.30;99.90;;;;;;5074636;28;20195;-49
2023/03/15 07:33:59;;;;;;;10.93;8.17;;;2.40;99.90;;;;;;5074763;28;20187;-48
2023/03/15 07:36:25;;;;;;;14.13;8.90;;;2.40;99.90;;;;;;5075819;28;20210;-49
2023/03/15 07:38:50;;;;;;;12.93;8.77;;;2.50;99.90;;;;;;5075249;28;20581;-48
2023/03/15 07:41:16;;;;;;;12.77;8.33;;;2.50;99.90;;;;;;5074746;28;20203;-49
2023/03/15 07:43:41;;;;;;;11.70;7.40;;;2.50;99.90;;;;;;5074661;28;20183;-49
2023/03/15 07:46:07;;;;;;;11.90;8.50;;;2.50;99.90;;;;;;5075223;28;20539;-48
2023/03/15 07:48:33;;;;;;;10.97;7.40;;;2.50;99.90;;;;;;5074716;28;20171;-49
2023/03/15 07:50:59;;;;;;;12.30;8.50;;;2.50;99.90;;;;;;5075148;28;20609;-47
2023/03/15 07:53:25;;;;;;;15.13;8.07;;;2.50;99.90;;;;;;5074968;28;20757;-48
2023/03/15 07:55:50;;;;;;;12.50;7.47;;;2.50;99.90;;;;;;5074835;28;20274;-49
2023/03/15 07:58:16;;;;;;;11.27;7.63;;;2.60;99.90;;;;;;5074858;28;20631;-48
2023/03/15 08:00:41;;;;;;;11.80;8.47;;;2.50;99.90;;;;;;5074412;28;20231;-48
2023/03/15 08:03:07;;;;;;;12.43;8.27;;;2.60;99.90;;;;;;5074345;28;20182;-48
2023/03/15 08:05:34;;;;;;;13.50;8.70;;;2.60;99.90;;;;;;5074319;28;20686;-47
2023/03/15 08:07:59;;;;;;;14.07;8.63;;;2.60;99.90;;;;;;5074015;28;20716;-47
2023/03/15 08:10:26;;;;;;;14.10;9.07;;;2.70;99.90;;;;;;5074147;28;20195;-48
2023/03/15 08:12:52;;;;;;;13.07;8.93;;;2.80;99.90;;;;;;5074249;28;20175;-46
2023/03/15 08:15:19;;;;;;;14.63;10.20;;;2.80;99.90;;;;;;5073851;28;20195;-47
2023/03/15 08:17:47;;;;;;;16.13;9.93;;;2.90;99.90;;;;;;5074014;28;20184;-46
2023/03/15 08:20:16;;;;;;;14.80;9.97;;;2.90;99.90;;;;;;5074299;28;20200;-45
2023/03/15 08:22:43;;;;;;;17.17;9.33;;;2.90;99.90;;;;;;5075003;28;20585;-48
2023/03/15 08:25:10;;;;;;;12.77;9.73;;;2.90;99.90;;;;;;5074005;28;20201;-45
2023/03/15 08:27:36;;;;;;;17.43;11.10;;;2.90;99.90;;;;;;5073742;28;20262;-49
2023/03/15 08:30:02;;;;;;;18.13;11.67;;;3.00;99.90;;;;;;5073869;28;20697;-49
2023/03/15 08:32:27;;;;;;;18.13;9.90;;;3.00;99.90;;;;;;5073864;28;20520;-48
2023/03/15 08:34:53;;;;;;;15.40;8.90;;;3.00;99.90;;;;;;5072853;28;20548;-47
2023/03/15 08:37:19;;;;;;;15.13;9.77;;;3.00;99.90;;;;;;5073786;28;20619;-48
2023/03/15 08:39:44;;;;;;;12.67;8.50;;;3.10;99.90;;;;;;5073784;28;20191;-45
2023/03/15 08:42:10;;;;;;;12.40;8.90;;;3.00;99.90;;;;;;5073506;28;20191;-46
2023/03/15 08:44:36;;;;;;;18.83;10.13;;;3.10;99.90;;;;;;5073908;28;20179;-46
2023/03/15 08:47:02;;;;;;;17.50;10.17;;;3.10;99.90;;;;;;5073818;28;20241;-47
2023/03/15 08:49:27;;;;;;;19.17;10.47;;;3.20;99.90;;;;;;5073459;28;20183;-48
2023/03/15 08:51:53;;;;;;;16.13;9.83;;;3.20;99.90;;;;;;5073519;28;20195;-48
2023/03/15 08:54:18;;;;;;;15.17;9.57;;;3.20;99.90;;;;;;5073653;28;20258;-48
2023/03/15 08:56:44;;;;;;;14.37;9.90;;;3.30;99.90;;;;;;5073282;28;20198;-47
2023/03/15 08:59:09;;;;;;;18.50;9.63;;;3.40;99.90;;;;;;5073402;28;20195;-48
2023/03/15 09:01:35;;;;;;;19.83;11.03;;;3.40;99.90;;;;;;5073471;28;20196;-49
2023/03/15 09:04:01;;;;;;;19.97;11.20;;;3.60;99.90;;;;;;5073485;28;20555;-50
2023/03/15 09:06:28;;;;;;;18.43;10.60;;;3.70;99.90;;;;;;5073235;28;20694;-50
2023/03/15 09:08:54;;;;;;;16.57;10.40;;;3.70;99.90;;;;;;5073710;28;20175;-45
2023/03/15 09:11:20;;;;;;;18.77;10.00;;;3.70;99.90;;;;;;5073261;28;20561;-43
2023/03/15 09:13:46;;;;;;;15.93;10.30;;;3.70;99.90;;;;;;5073499;28;20189;-44
2023/03/15 09:16:12;;;;;;;20.53;9.57;;;3.80;99.90;;;;;;5073634;28;20187;-45
2023/03/15 09:18:39;;;;;;;21.40;9.83;;;3.90;99.90;;;;;;5073093;28;20317;-46
2023/03/15 09:21:06;;;;;;;20.23;11.57;;;4.00;99.90;;;;;;5072683;28;20619;-46
2023/03/15 09:23:31;;;;;;;17.30;11.00;;;4.20;99.90;;;;;;5074939;28;20176;-46
2023/03/15 09:25:57;;;;;;;20.03;11.53;;;4.30;99.90;;;;;;5073350;28;20191;-42
2023/03/15 09:28:24;;;;;;;19.43;10.00;;;4.40;99.90;;;;;;5073080;28;20545;-46
2023/03/15 09:30:50;;;;;;;20.50;10.07;;;4.40;99.90;;;;;;5071651;28;20249;-45
2023/03/15 09:33:16;;;;;;;17.33;9.37;;;4.50;99.90;;;;;;5072994;28;20271;-47
2023/03/15 09:35:41;;;;;;;19.97;9.77;;;4.50;99.90;;;;;;5072827;28;20698;-45
2023/03/15 09:38:08;;;;;;;16.40;9.40;;;4.50;99.90;;;;;;5073238;28;20260;-45
2023/03/15 09:40:43;;;;;;;20.77;9.27;;;4.50;99.90;;;;;;5073053;28;20615;-45
2023/03/15 09:43:19;;;;;;;18.93;9.73;;;4.60;99.90;;;;;;5072807;28;20683;-46
2023/03/15 09:46:21;;;;;;;15.67;8.90;;;4.70;99.90;;;;;;5074894;28;20199;-46
2023/03/15 09:49:05;;;;;;;16.50;9.43;;;5.10;99.90;;;;;;5076946;28;20182;-47
2023/03/15 09:51:31;;;;;;;20.13;10.37;;;5.50;99.90;;;;;;5076631;28;20334;-48
2023/03/15 09:54:10;;;;;;;18.57;9.20;;;5.70;99.90;;;;;;5077103;28;20252;-47
2023/03/15 09:56:44;;;;;;;17.27;10.07;;;5.80;99.90;;;;;;5076761;28;20199;-46
2023/03/15 09:59:11;;;;;;;15.80;9.00;;;5.70;99.90;;;;;;5076724;28;20163;-46
2023/03/15 10:01:38;;;;;;;15.37;9.17;;;5.60;99.90;;;;;;5076593;28;20203;-45
2023/03/15 10:04:21;;;;;;;12.33;7.43;;;5.50;99.90;;;;;;5076401;28;20181;-47
2023/03/15 10:06:52;;;;;;;10.57;7.03;;;5.50;99.90;;;;;;5076937;28;20168;-46
2023/03/15 10:09:21;;;;;;;12.50;7.60;;;5.60;99.90;;;;;;5076577;28;20197;-46
2023/03/15 10:12:05;;;;;;;9.40;6.60;;;5.70;99.90;;;;;;5074855;28;20290;-47
2023/03/15 10:14:46;;;;;;;8.63;6.53;;;5.80;99.90;;;;;;5076439;28;20201;-53
2023/03/15 10:17:14;;;;;;;13.70;6.70;;;5.90;99.90;;;;;;5087392;22;21352;-45
2023/03/15 10:19:50;;;;;;;11.90;6.83;;;6.00;99.90;;;;;;5056074;28;20691;-45
2023/03/15 10:22:26;;;;;;;10.90;6.70;;;6.10;99.90;;;;;;5036181;28;20659;-46
2023/03/15 10:25:03;;;;;;;14.83;6.53;;;6.20;99.90;;;;;;5036372;28;20168;-47
2023/03/15 10:27:47;;;;;;;10.47;5.93;;;6.30;99.90;;;;;;5036281;28;20168;-47
2023/03/15 10:30:23;;;;;;;11.70;5.97;;;6.30;99.90;;;;;;5036209;28;20290;-46
2023/03/15 10:33:04;;;;;;;17.70;5.17;;;6.20;99.90;;;;;;5036229;28;20184;-47
2023/03/15 10:35:30;;;;;;;6.93;4.40;;;6.20;99.90;;;;;;5036123;28;20219;-47
2023/03/15 10:37:58;;;;;;;10.63;4.50;;;6.20;99.90;;;;;;5036001;28;20188;-47
2023/03/15 10:40:43;;;;;;;6.47;3.63;;;6.20;99.90;;;;;;5035652;28;20280;-44
2023/03/15 10:43:28;;;;;;;11.07;4.17;;;6.20;99.90;;;;;;5036029;28;20532;-46
2023/03/15 10:46:04;;;;;;;8.17;3.70;;;6.30;99.90;;;;;;5035960;28;20609;-44
2023/03/15 10:48:32;;;;;;;8.03;3.30;;;6.60;99.90;;;;;;5035673;28;20567;-46
2023/03/15 10:51:04;;;;;;;7.47;3.30;;;6.80;99.90;;;;;;5035548;28;20198;-47
2023/03/15 10:53:29;;;;;;;6.50;3.50;;;7.00;99.90;;;;;;5035823;28;20560;-47
2023/03/15 10:56:02;;;;;;;7.30;3.03;;;7.10;99.90;;;;;;5035631;28;20325;-45
2023/03/15 10:58:50;;;;;;;6.20;3.37;;;7.20;99.90;;;;;;5035246;28;20171;-45
2023/03/15 11:01:33;;;;;;;10.50;4.00;;;7.10;99.90;;;;;;5035328;28;20671;-46
2023/03/15 11:04:17;;;;;;;7.37;3.03;;;7.20;99.90;;;;;;5035600;28;20157;-47
2023/03/15 11:06:49;;;;;;;7.57;3.27;;;7.30;99.90;;;;;;5035817;28;20188;-47
2023/03/15 11:09:24;;;;;;;8.20;2.80;;;7.40;99.90;;;;;;5035267;28;20181;-47
2023/03/15 11:11:59;;;;;;;5.80;2.57;;;7.50;99.90;;;;;;5035408;28;20223;-47
2023/03/15 11:14:41;;;;;;;3.93;3.17;;;7.70;99.90;;;;;;5035128;28;20652;-47
2023/03/15 11:17:19;;;;;;;11.93;3.77;;;8.00;99.90;;;;;;5035125;28;20188;-46
2023/03/15 11:20:29;;;;;;;8.17;2.87;;;8.20;99.90;;;;;;5035915;28;20173;-46
2023/03/15 11:22:55;;;;;;;7.37;2.93;;;8.40;99.90;;;;;;5034776;28;20185;-46
2023/03/15 11:25:27;;;;;;;4.10;2.30;;;8.50;99.90;;;;;;5034879;28;20184;-47
2023/03/15 11:27:53;;;;;;;9.23;3.10;;;8.70;99.90;;;;;;5034883;28;20660;-46
2023/03/15 11:30:27;;;;;;;7.40;2.70;;;8.90;99.90;;;;;;5035042;28;20215;-47
2023/03/15 11:32:54;;;;;;;6.83;2.50;;;9.10;99.90;;;;;;5035446;28;20173;-48
2023/03/15 11:35:31;;;;;;;10.73;2.57;;;9.40;99.90;;;;;;5035261;28;20303;-47
2023/03/15 11:38:02;;;;;;;4.23;2.33;;;9.40;99.90;;;;;;5035288;28;20629;-47
2023/03/15 11:40:38;;;;;;;6.23;2.63;;;9.50;99.90;;;;;;5034821;28;20196;-46
2023/03/15 11:43:21;;;;;;;8.27;3.03;;;9.40;99.90;;;;;;5034938;28;20529;-47
2023/03/15 11:45:57;;;;;;;7.90;2.67;;;9.30;99.90;;;;;;5034954;28;20573;-47
2023/03/15 11:48:41;;;;;;;6.30;2.17;;;9.30;99.90;;;;;;5034547;28;20203;-48
2023/03/15 11:51:09;;;;;;;5.20;2.13;;;9.40;99.90;;;;;;5034422;28;20212;-47
2023/03/15 11:53:43;;;;;;;5.53;1.90;;;9.50;99.90;;;;;;5034281;28;20189;-47
2023/03/15 11:56:43;;;;;;;4.93;1.93;;;9.60;99.90;;;;;;5034570;28;20197;-47
2023/03/15 11:59:31;;;;;;;7.50;2.17;;;9.70;99.90;;;;;;5034422;28;20169;-47
2023/03/15 12:02:23;;;;;;;7.40;2.17;;;9.90;99.90;;;;;;5016804;28;20731;-48
2023/03/15 12:04:53;;;;;;;6.67;2.00;;;10.10;99.90;;;;;;5034255;28;20252;-46
2023/03/15 12:07:18;;;;;;;7.07;1.80;;;10.30;99.90;;;;;;5034414;28;20189;-46
2023/03/15 12:09:54;;;;;;;2.20;1.57;;;10.50;99.90;;;;;;5034356;28;20260;-45
2023/03/15 12:12:23;;;;;;;5.47;1.50;;;10.50;99.90;;;;;;5034625;28;20165;-45
2023/03/15 12:15:15;;;;;;;4.97;2.13;;;10.40;99.90;;;;;;5034419;28;20227;-47
2023/03/15 12:17:54;;;;;;;5.03;1.70;;;10.50;99.90;;;;;;5003289;28;20266;-45
2023/03/15 12:20:32;;;;;;;3.93;1.67;;;10.60;99.90;;;;;;5034213;28;20656;-47
2023/03/15 12:23:16;;;;;;;4.00;1.50;;;10.70;99.90;;;;;;5033923;28;20212;-47
2023/03/15 12:25:58;;;;;;;2.97;1.43;;;10.80;99.90;;;;;;5034161;28;20212;-47
2023/03/15 12:28:48;;;;;;;4.20;1.73;;;10.70;99.90;;;;;;5034081;28;20180;-46
2023/03/15 12:31:15;;;;;;;3.30;1.67;;;10.90;99.90;;;;;;5033946;28;20656;-45
2023/03/15 12:33:49;;;;;;;4.80;1.77;;;11.10;99.90;;;;;;5033660;28;20592;-47
2023/03/15 12:36:20;;;;;;;4.43;1.60;;;11.20;99.90;;;;;;5034168;28;20215;-47
2023/03/15 12:38:59;;;;;;;5.53;1.17;;;11.20;99.90;;;;;;5033948;28;20276;-47
2023/03/15 12:41:40;;;;;;;6.40;2.33;;;11.40;99.90;;;;;;5034407;28;20196;-46
2023/03/15 12:44:31;;;;;;;4.17;1.80;;;11.50;99.90;;;;;;5033847;28;20172;-47
2023/03/15 12:46:59;;;;;;;2.43;1.03;;;11.50;99.90;;;;;;5033489;28;20640;-46
2023/03/15 12:49:42;;;;;;;7.10;1.60;;;11.60;99.90;;;;;;5033696;28;20192;-46
2023/03/15 12:52:10;;;;;;;4.77;1.50;;;11.70;99.90;;;;;;5033785;28;20216;-48
2023/03/15 12:55:03;;;;;;;3.97;1.77;;;11.80;99.90;;;;;;5033754;28;20188;-47
2023/03/15 12:57:35;;;;;;;6.10;1.67;;;12.00;99.90;;;;;;5033472;28;20588;-47
2023/03/15 13:00:12;;;;;;;2.67;1.30;;;12.20;99.90;;;;;;5033387;28;20165;-46
2023/03/15 13:02:52;;;;;;;3.50;1.17;;;12.30;99.90;;;;;;5033400;28;20169;-47